createdAt,value
2022-12-16T00:08:23.124Z,68.99
2022-12-16T00:18:26.329Z,67.45
2022-12-16T00:28:30.890Z,68.50
2022-12-16T00:38:33.896Z,68.02
2022-12-16T00:48:38.215Z,66.93
2022-12-16T00:58:42.725Z,67.12
2022-12-16T01:08:48.878Z,68.52
2022-12-16T01:18:52.279Z,66.33
2022-12-16T01:28:56.498Z,66.21
2022-12-16T01:38:59.782Z,68.00
2022-12-16T01:49:12.336Z,68.66
2022-12-16T01:59:18.389Z,68.75
2022-12-16T02:09:22.983Z,68.69
2022-12-16T02:20:11.005Z,68.67
2022-12-16T02:30:39.699Z,67.28
2022-12-16T02:40:45.854Z,67.76
2022-12-16T02:50:52.172Z,67.38
2022-12-16T03:01:03.149Z,68.42
2022-12-16T03:11:09.324Z,68.61
2022-12-16T03:21:15.194Z,67.42
2022-12-16T03:31:32.851Z,67.40
2022-12-16T03:41:37.740Z,67.10
2022-12-16T03:51:41.995Z,67.84
2022-12-16T04:01:45.230Z,68.39
2022-12-16T04:12:07.022Z,67.97
2022-12-16T04:22:32.063Z,67.71
2022-12-16T04:32:50.570Z,67.29
2022-12-16T04:43:11.064Z,66.05
2022-12-16T04:53:33.361Z,68.16
2022-12-16T05:03:54.577Z,68.40
2022-12-16T05:14:18.660Z,68.05
2022-12-16T05:24:39.589Z,67.88
2022-12-16T05:35:16.608Z,68.20
2022-12-16T05:45:37.066Z,67.70
2022-12-16T05:55:56.272Z,68.12
2022-12-16T06:06:17.065Z,68.24
2022-12-16T06:16:38.940Z,66.19
2022-12-16T06:26:59.713Z,67.64
2022-12-16T06:37:21.730Z,68.11
2022-12-16T06:47:42.361Z,66.26
2022-12-16T06:58:09.595Z,67.42
2022-12-16T07:08:30.681Z,68.72
2022-12-16T07:18:52.288Z,68.71
2022-12-16T07:29:12.765Z,68.32
2022-12-16T07:39:34.434Z,68.94
2022-12-16T07:53:26.837Z,68.66
2022-12-16T08:00:37.393Z,69.44
2022-12-16T08:10:57.771Z,72.24
2022-12-16T08:21:19.529Z,71.62
2022-12-16T08:31:40.313Z,71.22
2022-12-16T08:42:02.074Z,69.84
2022-12-16T08:52:23.283Z,72.36
2022-12-16T09:02:45.313Z,73.08
2022-12-16T09:13:07.649Z,73.19
2022-12-16T09:23:34.335Z,73.79
2022-12-16T09:33:55.488Z,75.89
2022-12-16T09:44:27.199Z,76.69
2022-12-16T09:54:50.541Z,76.02
2022-12-16T10:05:13.476Z,76.26
2022-12-16T10:15:45.894Z,76.46
2022-12-16T10:26:12.695Z,77.23
2022-12-16T10:36:39.568Z,78.07
2022-12-16T10:47:01.440Z,78.15
2022-12-16T10:57:29.637Z,78.14
2022-12-16T11:07:55.420Z,78.32
2022-12-16T11:18:21.114Z,78.40
2022-12-16T11:28:43.046Z,78.45
2022-12-16T11:39:06.058Z,79.45
2022-12-16T11:49:36.267Z,77.45
2022-12-16T12:00:00.820Z,76.39
2022-12-16T12:10:36.710Z,76.62
2022-12-16T12:21:06.106Z,75.84
2022-12-16T12:31:40.754Z,75.50
2022-12-16T12:42:22.906Z,74.82
2022-12-16T12:53:11.095Z,74.78
2022-12-16T13:03:36.376Z,74.58
2022-12-16T13:13:58.775Z,74.21
2022-12-16T13:24:43.149Z,74.03
2022-12-16T13:35:05.405Z,75.04
2022-12-16T13:45:36.568Z,75.27
2022-12-16T13:56:03.422Z,75.50
2022-12-16T14:06:30.071Z,76.83
2022-12-16T14:17:01.680Z,77.33
2022-12-16T14:27:30.171Z,77.63
2022-12-16T14:37:55.589Z,78.52
2022-12-16T14:48:24.660Z,78.54
2022-12-16T14:58:46.647Z,78.88
2022-12-16T15:09:23.967Z,80.22
2022-12-16T15:19:46.199Z,81.33
2022-12-16T15:30:09.011Z,84.67
2022-12-16T15:40:44.826Z,86.27
2022-12-16T15:51:11.790Z,86.81
2022-12-16T16:01:36.640Z,87.09
2022-12-16T16:12:12.021Z,86.48
2022-12-16T16:22:36.065Z,88.95
2022-12-16T16:33:11.285Z,88.27
2022-12-16T16:43:34.941Z,87.34
2022-12-16T16:53:56.231Z,88.30
2022-12-16T17:04:18.191Z,88.70
2022-12-16T17:14:40.258Z,89.05
2022-12-16T17:25:02.429Z,89.30
2022-12-16T17:35:31.831Z,89.58
2022-12-16T17:45:54.558Z,90.04
2022-12-16T17:56:14.924Z,90.00
2022-12-16T18:06:36.697Z,90.41
2022-12-16T18:16:57.181Z,90.12
2022-12-16T18:27:19.030Z,90.73
2022-12-16T18:37:39.920Z,90.80
2022-12-16T18:48:10.205Z,90.67
2022-12-16T19:09:13.337Z,90.27
2022-12-16T19:19:34.068Z,90.19
2022-12-16T19:29:56.083Z,89.72
2022-12-16T19:40:27.952Z,89.93
2022-12-16T19:50:50.495Z,90.30
2022-12-16T20:01:12.456Z,89.38
2022-12-16T20:11:34.160Z,89.63
2022-12-16T20:21:56.277Z,89.86
2022-12-16T20:32:18.669Z,90.12
2022-12-16T20:42:39.297Z,90.51
2022-12-16T20:53:12.559Z,90.54
2022-12-16T21:03:33.195Z,90.60
2022-12-16T21:13:56.368Z,90.91
2022-12-16T21:24:17.235Z,90.01
2022-12-16T21:34:39.267Z,90.50
2022-12-16T21:44:59.848Z,89.60
2022-12-16T21:55:21.806Z,89.47
2022-12-16T22:05:42.723Z,89.28
2022-12-16T22:16:13.639Z,90.16
2022-12-16T22:26:34.230Z,89.61
2022-12-16T22:36:57.072Z,90.26
2022-12-16T22:47:17.982Z,89.21
2022-12-16T22:57:39.618Z,88.49
2022-12-16T23:08:00.430Z,89.48
2022-12-16T23:18:22.935Z,88.55
2022-12-16T23:28:44.467Z,89.04
2022-12-16T23:39:06.801Z,88.53
2022-12-16T23:49:29.608Z,88.28
2022-12-16T23:59:51.372Z,88.77
